LEPP/PNA METAR and TAF weather

Enter ICAO airport designator
Station Type Date Time Source
LEPP METAR 2019/04/25 15:30 UTC NOAA

LEPP 251530Z 21008KT 160V250 9999 FEW058 16/02 Q1009


Station Type Date Time Source
LEPP Decoded METAR 2019/04/25 15:30 UTC NOAA

Pamplona / Noain, Spain (LEPP) 42-46N 001-38W 453M
Apr 25, 2019 - 11:30 AM EDT / 2019.04.25 1530 UTC
Wind: from the SSW (210 degrees) at 9 MPH (8 KT) (direction variable):0
Visibility: greater than 7 mile(s):0
Sky conditions: mostly clear
Temperature: 60 F (16 C)
Dew Point: 35 F (2 C)
Relative Humidity: 38%
Pressure (altimeter): 29.80 in. Hg (1009 hPa)
ob: LEPP 251530Z 21008KT 160V250 9999 FEW058 16/02 Q1009
cycle: 15

Station Type Date Time Source
LEPP TAF 2019/04/25 15:27 UTC NOAA

TAF LEPP 251400Z 2515/2615 20009KT 9999 FEW030 SCT045 TX14/2515Z TN05/2604Z PROB30
TEMPO 2515/2524 23015G25KT SHRA TS SCT025TCU SCT030CB PROB30
TEMPO 2600/2606 SHRA SCT030TCU
BECMG 2608/2611 33010KT

Example: see airport list